Leesburg, FL

8:59 AM EDT on April 28, 2015 (GMT -0400)
Ocala Regional-Taylor | | Change Station
CLOSE
Current Station
Airport
Location: Ocala,
Elevation: 89 ft
Nearby Weather Stations

Elev 89 ft 29.17 °N, 82.22 °W | Updated 9 minutes ago

Rain
Rain
68 °F
Feels Like 68 °F
N
6
Wind Variable Wind from South

Today
High -- | Low -- °F
--% Chance of Precip.
Yesterday
High -- | Low -- °F
Precip. -- in
6:49 AM 8:01 PM
Waxing Gibbous, 73% visible
Pressure 29.88 in
Visibility 2.0 miles
Clouds Mostly Cloudy 3000 ft
Overcast 5000 ft
Dew Point 66 °F
Humidity 94%
Rainfall 0.00 in
Snow Depth Not available.
UV 1 out of 12
Pollen 8.60 out of 12
Air Quality Not available.
Flu Activity Local Activity
METAR KOCF 281250Z 19005KT 2SM -RA BR BKN030 OVC050 20/19 A2988

More Conditions Fewer Conditions

Pressure 29.88 in
Visibility 2.0 miles
Clouds Mostly Cloudy 3000 ft
Overcast 5000 ft
Dew Point 66 °F
Humidity 94%
Rainfall 0.00 in
Snow Depth Not available.
UV 1 out of 12
Pollen 8.60 out of 12
Air Quality Not available.
Flu Activity Local Activity
METAR KOCF 281250Z 19005KT 2SM -RA BR BKN030 OVC050 20/19 A2988

More Conditions Fewer Conditions

Nowcast | as of 6:22 am EDT on April 28, 2015

Through mid morning...expect increasing shower chances... especially along the I-4 corridor as a warm frontal boundary retreats back northward. Embedded thunder will also be possible this morning. Coverage across east central Florida will increase through the morning and early afternoon as activity moves from the west to the east. Showers and storms will also move off of the East Coast and pose a threat to marine interests. A few strong storms will be possible later in the afternoon and mainly south of Orlando where cloud cover will be less thick. Additional details...including graphics are available online at: http://www.Srh.NOAA.Gov/mlb/blog.Php

×

10-Day Weather Forecast

Almanac

Astronomy

Apr. 28, 2015 Rise Set
Actual Time
Civil Twilight
Nautical Twilight
Astronomical Twilight
Moon
Length of Visible Light
Length of Day
Tomorrow will be .
, % of the Moon is Illuminated

Today's Extremes

State Highs State Lows

Community

WunderPhotos

Upload Photos

1,817,618 photos uploaded!

WunderBlogs® & News

Nearby

Air Quality

  Air Quality AQ Index Pollutant
Not available.

Snow Depth

Station Depth Elevation

Earthquake Activity

City Distance Mag. Time & Date
Minimum magnitude displayed is 2.5.

Coastal Water Temperatures

Place Temperature

Stations

Nearby Weather Stations

Station Location Temp. Windchill Dew Point Humidity Wind Precip. Elev Updated Type